地図

経路データ

SID SEASON NUMBER BASIN SUBBASIN NAME ISO_TIME NATURE LAT LON WMO_WIND WMO_PRES WMO_AGENCY TRACK_TYPE DIST2LAND LANDFALL IFLAG USA_AGENCY USA_ATCF_ID USA_LAT USA_LON USA_RECORD USA_STATUS USA_WIND USA_PRES USA_SSHS USA_R34_NE USA_R34_SE USA_R34_SW USA_R34_NW USA_R50_NE USA_R50_SE USA_R50_SW USA_R50_NW USA_R64_NE USA_R64_SE USA_R64_SW USA_R64_NW USA_POCI USA_ROCI USA_RMW USA_EYE TOKYO_LAT TOKYO_LON TOKYO_GRADE TOKYO_WIND TOKYO_PRES TOKYO_R50_DIR TOKYO_R50_LONG TOKYO_R50_SHORT TOKYO_R30_DIR TOKYO_R30_LONG TOKYO_R30_SHORT TOKYO_LAND CMA_LAT CMA_LON CMA_CAT CMA_WIND CMA_PRES HKO_LAT HKO_LON HKO_CAT HKO_WIND HKO_PRES NEWDELHI_LAT NEWDELHI_LON NEWDELHI_GRADE NEWDELHI_WIND NEWDELHI_PRES NEWDELHI_CI NEWDELHI_DP NEWDELHI_POCI REUNION_LAT REUNION_LON REUNION_TYPE REUNION_WIND REUNION_PRES REUNION_TNUM REUNION_CI REUNION_RMW REUNION_R34_NE REUNION_R34_SE REUNION_R34_SW REUNION_R34_NW REUNION_R50_NE REUNION_R50_SE REUNION_R50_SW REUNION_R50_NW REUNION_R64_NE REUNION_R64_SE REUNION_R64_SW REUNION_R64_NW BOM_LAT BOM_LON BOM_TYPE BOM_WIND BOM_PRES BOM_TNUM BOM_CI BOM_RMW BOM_R34_NE BOM_R34_SE BOM_R34_SW BOM_R34_NW BOM_R50_NE BOM_R50_SE BOM_R50_SW BOM_R50_NW BOM_R64_NE BOM_R64_SE BOM_R64_SW BOM_R64_NW BOM_ROCI BOM_POCI BOM_EYE BOM_POS_METHOD BOM_PRES_METHOD NADI_LAT NADI_LON NADI_CAT NADI_WIND NADI_PRES WELLINGTON_LAT WELLINGTON_LON WELLINGTON_WIND WELLINGTON_PRES DS824_LAT DS824_LON DS824_STAGE DS824_WIND DS824_PRES TD9636_LAT TD9636_LON TD9636_STAGE TD9636_WIND TD9636_PRES TD9635_LAT TD9635_LON TD9635_WIND TD9635_PRES TD9635_ROCI NEUMANN_LAT NEUMANN_LON NEUMANN_CLASS NEUMANN_WIND NEUMANN_PRES MLC_LAT MLC_LON MLC_CLASS MLC_WIND MLC_PRES USA_GUST BOM_GUST BOM_GUST_PER REUNION_GUST REUNION_GUST_PER USA_SEAHGT USA_SEARAD_NE USA_SEARAD_SE USA_SEARAD_SW USA_SEARAD_NW STORM_SPEED STORM_DIR
1932330N09137 1932 76 WP MM NOT_NAMED 1932-11-24 22:00:00 NR 8.50000 136.800 main 1039 1035 __________O___ -1 8.50000 136.800 7 9 274
1932330N09137 1932 76 WP MM NOT_NAMED 1932-11-25 00:00:00 NR 8.52249 136.503 main 1035 1032 __________P___ -1 8.52249 136.503 7 9 274
1932330N09137 1932 76 WP MM NOT_NAMED 1932-11-25 03:00:00 NR 8.55382 136.062 main 1043 996 __________P___ -1 8.55382 136.062 7 9 274
1932330N09137 1932 76 WP MM NOT_NAMED 1932-11-25 06:00:00 NR 8.57956 135.635 main 996 952 __________P___ -1 8.57956 135.635 7 8 273
1932330N09137 1932 76 WP MM NOT_NAMED 1932-11-25 09:00:00 NR 8.59671 135.229 main 952 941 __________P___ -1 8.59671 135.229 7 8 272
1932330N09137 1932 76 WP MM NOT_NAMED 1932-11-25 10:00:00 NR 8.60000 135.100 main 941 919 __________O___ -1 8.60000 135.100 7 7 271
1932330N09137 1932 76 WP MM NOT_NAMED 1932-11-25 12:00:00 NR 8.60276 134.851 main 919 876 __________P___ -1 8.60276 134.851 7 7 270
1932330N09137 1932 76 WP MM NOT_NAMED 1932-11-25 15:00:00 NR 8.60068 134.485 main 876 832 __________P___ -1 8.60068 134.485 7 7 270
1932330N09137 1932 76 WP MM NOT_NAMED 1932-11-25 18:00:00 NR 8.59687 134.099 main 832 788 __________P___ -1 8.59687 134.099 7 8 270
1932330N09137 1932 76 WP MM NOT_NAMED 1932-11-25 21:00:00 NR 8.59765 133.662 main 788 766 __________P___ -1 8.59765 133.662 7 9 270
1932330N09137 1932 76 WP MM NOT_NAMED 1932-11-25 22:00:00 NR 8.60000 133.500 main 766 723 __________O___ -1 8.60000 133.500 7 10 270
1932330N09137 1932 76 WP MM NOT_NAMED 1932-11-26 00:00:00 NR 8.60053 133.137 main 723 657 __________P___ -1 8.60053 133.137 7 11 270
1932330N09137 1932 76 WP MM NOT_NAMED 1932-11-26 03:00:00 NR 8.60734 132.536 main 657 592 __________P___ -1 8.60734 132.536 7 12 271
1932330N09137 1932 76 WP MM NOT_NAMED 1932-11-26 06:00:00 NR 8.62967 131.890 main 592 518 __________P___ -1 8.62967 131.890 7 13 273
1932330N09137 1932 76 WP MM NOT_NAMED 1932-11-26 09:00:00 NR 8.67700 131.223 main 518 497 __________P___ -1 8.67700 131.223 7 13 275
1932330N09137 1932 76 WP MM NOT_NAMED 1932-11-26 10:00:00 NR 8.70000 131.000 main 497 454 __________O___ -1 8.70000 131.000 7 13 276
1932330N09137 1932 76 WP MM NOT_NAMED 1932-11-26 12:00:00 NR 8.74708 130.580 main 454 383 __________P___ -1 8.74708 130.580 7 13 278
1932330N09137 1932 76 WP MM NOT_NAMED 1932-11-26 15:00:00 NR 8.84281 129.944 main 383 328 __________P___ -1 8.84281 129.944 7 13 280
1932330N09137 1932 76 WP MM NOT_NAMED 1932-11-26 18:00:00 NR 8.97154 129.295 main 328 255 __________P___ -1 8.97154 129.295 7 13 283
1932330N09137 1932 76 WP MM NOT_NAMED 1932-11-26 21:00:00 NR 9.13644 128.628 main 255 235 __________P___ -1 9.13644 128.628 7 14 284
1932330N09137 1932 76 WP MM NOT_NAMED 1932-11-26 22:00:00 NR 9.20000 128.400 main 235 184 __________O___ -1 9.20000 128.400 7 15 282
1932330N09137 1932 76 WP MM NOT_NAMED 1932-11-27 00:00:00 NR 9.28607 127.892 main 184 101 __________P___ -1 9.28607 127.892 7 16 281
1932330N09137 1932 76 WP MM NOT_NAMED 1932-11-27 03:00:00 NR 9.44547 127.109 main 101 45 __________P___ -1 9.44547 127.109 7 16 285
1932330N09137 1932 76 WP MM NOT_NAMED 1932-11-27 06:00:00 NR 9.68242 126.356 main 49 31 __________P___ -1 9.68242 126.356 7 15 293
1932330N09137 1932 76 WP MM NOT_NAMED 1932-11-27 09:00:00 NR 10.0437 125.692 main 35 24 __________P___ -1 10.0437 125.692 7 15 302
1932330N09137 1932 76 WP MM NOT_NAMED 1932-11-27 10:00:00 NR 10.2000 125.500 main 24 0 __________O___ -1 10.2000 125.500 7 15 318
1932330N09137 1932 76 WP MM NOT_NAMED 1932-11-27 12:00:00 NR 10.6062 125.171 main 0 0 __________P___ -1 10.6062 125.171 7 16 328
1932330N09137 1932 76 WP MM NOT_NAMED 1932-11-27 15:00:00 NR 11.3427 124.779 main 0 0 __________P___ -1 11.3427 124.779 7 17 336
1932330N09137 1932 76 WP MM NOT_NAMED 1932-11-27 18:00:00 NR 12.1539 124.484 main 0 0 __________P___ -1 12.1539 124.484 7 17 343
1932330N09137 1932 76 WP MM NOT_NAMED 1932-11-27 21:00:00 NR 12.9521 124.262 main 21 10 __________P___ -1 12.9521 124.262 7 16 345
1932330N09137 1932 76 WP MM NOT_NAMED 1932-11-27 22:00:00 NR 13.2000 124.200 main 24 0 __________O___ -1 13.2000 124.200 7 14 346
1932330N09137 1932 76 WP MM NOT_NAMED 1932-11-28 00:00:00 NR 13.6198 124.091 main 0 0 __________P___ -1 13.6198 124.091 7 12 348
1932330N09137 1932 76 WP MM NOT_NAMED 1932-11-28 03:00:00 NR 14.1995 123.979 main 24 24 __________P___ -1 14.1995 123.979 7 11 350
1932330N09137 1932 76 WP MM NOT_NAMED 1932-11-28 06:00:00 NR 14.7331 123.885 main 81 92 __________P___ -1 14.7331 123.885 7 11 348
1932330N09137 1932 76 WP MM NOT_NAMED 1932-11-28 09:00:00 NR 15.2364 123.758 main 138 150 __________P___ -1 15.2364 123.758 7 10 345
1932330N09137 1932 76 WP MM NOT_NAMED 1932-11-28 10:00:00 NR 15.4000 123.700 main 159 146 __________O___ -1 15.4000 123.700 7 11 338
1932330N09137 1932 76 WP MM NOT_NAMED 1932-11-28 12:00:00 NR 15.7547 123.545 main 146 108 __________P___ -1 15.7547 123.545 7 12 334
1932330N09137 1932 76 WP MM NOT_NAMED 1932-11-28 15:00:00 NR 16.2682 123.262 main 108 48 __________P___ -1 16.2682 123.262 7 12 329
1932330N09137 1932 76 WP MM NOT_NAMED 1932-11-28 18:00:00 NR 16.7458 122.924 main 48 10 __________P___ -1 16.7458 122.924 7 11 323
1932330N09137 1932 76 WP MM NOT_NAMED 1932-11-28 21:00:00 NR 17.1720 122.538 main 10 0 __________P___ -1 17.1720 122.538 7 11 318
1932330N09137 1932 76 WP MM NOT_NAMED 1932-11-28 22:00:00 NR 17.3000 122.400 main 0 0 __________O___ -1 17.3000 122.400 7 11 315
1932330N09137 1932 76 WP MM NOT_NAMED 1932-11-29 00:00:00 NR 17.5549 122.136 main 0 0 __________P___ -1 17.5549 122.136 7 11 312
1932330N09137 1932 76 WP MM NOT_NAMED 1932-11-29 03:00:00 NR 17.8875 121.703 main 0 0 __________P___ -1 17.8875 121.703 7 11 305
1932330N09137 1932 76 WP MM NOT_NAMED 1932-11-29 06:00:00 NR 18.1550 121.221 main 0 0 __________P___ -1 18.1550 121.221 7 11 296
1932330N09137 1932 76 WP MM NOT_NAMED 1932-11-29 09:00:00 NR 18.3514 120.689 main 0 0 __________P___ -1 18.3514 120.689 7 11 290
1932330N09137 1932 76 WP MM NOT_NAMED 1932-11-29 10:00:00 NR 18.4000 120.500 main 10 10 __________O___ -1 18.4000 120.500 3 12 283
1932330N09137 1932 76 WP MM NOT_NAMED 1932-11-29 12:00:00 NR 18.4850 120.075 main 53 64 __________P___ -1 18.4850 120.075 3 13 278
1932330N09137 1932 76 WP MM NOT_NAMED 1932-11-29 15:00:00 NR 18.5494 119.392 main 124 128 __________P___ -1 18.5494 119.392 3 13 273
1932330N09137 1932 76 WP MM NOT_NAMED 1932-11-29 18:00:00 NR 18.5540 118.709 main 198 198 __________P___ -1 18.5540 118.709 3 12 269
1932330N09137 1932 76 WP MM NOT_NAMED 1932-11-29 21:00:00 NR 18.5178 118.085 main 253 253 __________P___ -1 18.5178 118.085 3 12 266
1932330N09137 1932 76 WP MM NOT_NAMED 1932-11-29 22:00:00 NR 18.5000 117.900 main 273 273 __________O___ -1 18.5000 117.900 4 9 266
1932330N09137 1932 76 WP MM NOT_NAMED 1932-11-30 00:00:00 NR 18.4848 117.614 main 302 302 __________P___ -1 18.4848 117.614 4 7 264
1932330N09137 1932 76 WP MM NOT_NAMED 1932-11-30 03:00:00 NR 18.4379 117.261 main 329 339 __________P___ -1 18.4379 117.261 4 6 259
1932330N09137 1932 76 WP MM NOT_NAMED 1932-11-30 06:00:00 NR 18.3595 116.949 main 370 368 __________P___ -1 18.3595 116.949 4 6 252
1932330N09137 1932 76 WP MM NOT_NAMED 1932-11-30 09:00:00 NR 18.2462 116.622 main 397 397 __________P___ -1 18.2462 116.622 4 7 249
1932330N09137 1932 76 WP MM NOT_NAMED 1932-11-30 10:00:00 NR 18.2000 116.500 main 407 407 __________O___ -1 18.2000 116.500 4 8 248
1932330N09137 1932 76 WP MM NOT_NAMED 1932-11-30 12:00:00 NR 18.0948 116.227 main 432 432 __________P___ -1 18.0948 116.227 4 9 248
1932330N09137 1932 76 WP MM NOT_NAMED 1932-11-30 15:00:00 NR 17.9098 115.758 main 461 471 __________P___ -1 17.9098 115.758 4 10 247
1932330N09137 1932 76 WP MM NOT_NAMED 1932-11-30 18:00:00 NR 17.7004 115.236 main 490 455 __________P___ -1 17.7004 115.236 4 11 247
1932330N09137 1932 76 WP MM NOT_NAMED 1932-11-30 21:00:00 NR 17.4763 114.686 main 455 443 __________P___ -1 17.4763 114.686 4 11 247
1932330N09137 1932 76 WP MM NOT_NAMED 1932-11-30 22:00:00 NR 17.4000 114.500 main 443 __________O___ -1 17.4000 114.500 7 12 247

デジタル台風データ・検索

IBTrACS Databaseについて

本データベースは、米国NOAAが公開する1842年以降の世界の熱帯低気圧のベストトラックデータアーカイブInternational Best Track Archive for Climate Stewardship (IBTrACS)を、ウェブで閲覧しやすい形式に変換したものです。

最終更新日:2021-12-03